Terminal Aerodrome Forecast
Issued by NWS

Home | Current Version | Previous Version | Text Only | Print | Product List | Glossary On
Versions: 1 2 3 4 5 6 7 8 9 10 11 12 13 14 15 16
000
FTUS43 KBIS 251100
TAFDIK
TAF
KDIK 251120Z 2512/2612 11011KT 1/4SM FG OVC002
      TEMPO 2514/2516 2SM BR BKN005
     FM251600 12012KT P6SM BKN008 OVC012
     FM251800 13012G20KT P6SM SCT020 BKN035
     FM260000 16011KT 5SM BR VCSH OVC015
     FM260400 20008KT 4SM -SHRA OVC020=

USA.gov is the U.S. government's official web portal to all federal, state and local government web resources and services.